createdAt,value
2018-03-03T00:03:59.312Z,59.28
2018-03-03T00:06:28.784Z,64.75
2018-03-03T01:27:21.040Z,55.75
2018-03-03T01:30:02.466Z,53.97
2018-03-03T01:32:31.186Z,54.67
2018-03-03T01:35:20.528Z,51.45
2018-03-03T01:37:52.484Z,51.30
2018-03-03T01:40:25.566Z,48.72
2018-03-03T01:42:55.718Z,51.05
2018-03-03T01:45:25.795Z,59.10
2018-03-03T01:50:30.036Z,50.80
2018-03-03T01:52:59.531Z,51.63
2018-03-03T01:58:12.357Z,50.03
2018-03-03T02:03:25.760Z,54.92
2018-03-03T02:05:53.979Z,52.83
2018-03-03T02:08:25.612Z,52.58
2018-03-03T02:10:54.113Z,52.35
2018-03-03T02:13:22.285Z,50.00
2018-03-03T02:15:51.202Z,48.50
2018-03-03T02:18:19.634Z,54.33
2018-03-03T02:20:47.826Z,53.67
2018-03-03T02:23:16.028Z,51.50
2018-03-03T02:25:44.999Z,52.62
2018-03-03T02:28:13.907Z,53.15
2018-03-03T02:30:42.101Z,51.08
2018-03-03T02:33:11.014Z,49.70
2018-03-03T02:35:43.684Z,48.28
2018-03-03T02:38:12.704Z,54.50
2018-03-03T02:40:45.121Z,51.85
2018-03-03T02:43:14.027Z,53.50
2018-03-03T02:45:42.199Z,59.75
2018-03-03T02:48:10.957Z,59.28
2018-03-03T02:50:39.135Z,59.20
2018-03-03T02:53:07.379Z,59.78
2018-03-03T02:55:36.048Z,55.92
2018-03-03T02:58:04.233Z,43.42
2018-03-03T03:00:33.748Z,49.70
2018-03-03T03:03:03.697Z,49.10
2018-03-03T03:05:32.788Z,48.53
2018-03-03T03:08:00.958Z,53.70
2018-03-03T03:10:29.921Z,52.28
2018-03-03T03:13:01.042Z,53.20
2018-03-03T03:15:32.512Z,53.67
2018-03-03T03:18:01.118Z,54.78
2018-03-03T03:20:31.811Z,54.63
2018-03-03T03:23:00.248Z,64.57
2018-03-03T03:25:32.357Z,60.08
2018-03-03T03:28:00.550Z,57.60
2018-03-03T03:30:34.735Z,65.75
2018-03-03T03:33:03.806Z,76.50
2018-03-03T03:35:32.922Z,72.97
2018-03-03T03:38:02.334Z,90.90
2018-03-03T03:40:30.505Z,75.65
2018-03-03T03:42:58.769Z,68.90
2018-03-03T03:45:35.247Z,66.32
2018-03-03T03:48:05.446Z,70.15
2018-03-03T03:50:34.390Z,73.40
2018-03-03T03:53:02.563Z,73.05
2018-03-03T03:55:30.736Z,74.62
2018-03-03T03:57:58.910Z,70.25
2018-03-03T04:00:27.087Z,59.75
2018-03-03T04:02:56.822Z,68.35
2018-03-03T04:05:28.802Z,68.45
2018-03-03T04:07:57.428Z,70.45
2018-03-03T04:10:29.385Z,65.20
2018-03-03T04:12:57.637Z,68.80
2018-03-03T04:15:29.829Z,69.25
2018-03-03T04:17:58.018Z,69.57
2018-03-03T04:20:30.483Z,65.40
2018-03-03T04:22:58.671Z,63.95
2018-03-03T04:25:32.506Z,61.08
2018-03-03T04:28:05.119Z,72.10
2018-03-03T04:30:33.296Z,70.28
2018-03-03T04:33:06.608Z,65.82
2018-03-03T04:35:34.938Z,64.22
2018-03-03T04:38:03.146Z,66.30
2018-03-03T04:40:32.226Z,62.88
2018-03-03T04:43:03.396Z,54.58
2018-03-03T04:45:31.669Z,52.80
2018-03-03T04:48:00.534Z,52.95
2018-03-03T04:50:28.725Z,51.30
2018-03-03T04:52:56.966Z,51.22
2018-03-03T04:55:26.127Z,50.33
2018-03-03T04:57:54.299Z,52.90
2018-03-03T05:00:26.818Z,53.80
2018-03-03T05:03:09.900Z,55.12
2018-03-03T05:05:53.050Z,54.83
2018-03-03T05:08:37.038Z,54.97
2018-03-03T05:11:06.648Z,51.53
2018-03-03T05:13:36.741Z,46.75
2018-03-03T05:16:11.196Z,42.50
2018-03-03T05:18:46.221Z,42.47
2018-03-03T05:21:20.709Z,46.88
2018-03-03T05:23:55.433Z,43.70
2018-03-03T05:26:28.570Z,43.15
2018-03-03T05:29:14.437Z,47.58
2018-03-03T05:31:50.209Z,51.25
2018-03-03T05:34:37.855Z,48.00
2018-03-03T05:37:26.847Z,47.00
2018-03-03T05:40:01.326Z,51.40
2018-03-03T05:42:50.184Z,51.15
2018-03-03T05:45:43.520Z,45.30
2018-03-03T05:48:17.340Z,42.88
2018-03-03T05:51:01.093Z,42.00
2018-03-03T05:53:39.171Z,40.83
2018-03-03T05:56:14.064Z,42.50
2018-03-03T05:58:47.834Z,47.90
2018-03-03T06:01:22.696Z,52.75
2018-03-03T06:03:56.577Z,48.40
2018-03-03T06:06:26.205Z,46.63
2018-03-03T06:08:54.386Z,47.08
2018-03-03T06:11:23.110Z,45.45
2018-03-03T06:13:52.352Z,44.40
2018-03-03T06:16:20.638Z,48.33
2018-03-03T06:18:48.824Z,46.83
2018-03-03T06:21:17.087Z,48.08
2018-03-03T06:23:46.082Z,46.17
2018-03-03T06:26:14.240Z,45.47
2018-03-03T06:28:42.681Z,37.50
2018-03-03T06:31:12.176Z,42.42
2018-03-03T06:33:42.240Z,43.13
2018-03-03T06:36:10.409Z,41.90
2018-03-03T06:38:38.585Z,44.95
2018-03-03T06:41:06.769Z,48.10
2018-03-03T06:43:35.418Z,50.70
2018-03-03T06:46:03.647Z,48.33
2018-03-03T06:48:32.183Z,59.70
2018-03-03T06:51:01.191Z,51.42
2018-03-03T06:53:30.473Z,48.63
2018-03-03T06:55:58.641Z,51.90
2018-03-03T06:58:27.994Z,49.45
2018-03-03T07:00:56.181Z,53.53
2018-03-03T07:03:24.389Z,49.97
2018-03-03T07:05:52.588Z,54.55
2018-03-03T07:08:22.160Z,50.55
2018-03-03T07:10:51.999Z,55.28
2018-03-03T07:13:21.229Z,52.00
2018-03-03T07:15:49.403Z,66.95
2018-03-03T07:18:20.226Z,64.72
2018-03-03T07:20:48.491Z,48.80
2018-03-03T07:23:18.323Z,46.90
2018-03-03T07:25:47.417Z,45.88
2018-03-03T07:28:16.416Z,48.53
2018-03-03T07:30:46.041Z,55.53
2018-03-03T07:33:14.518Z,58.85
2018-03-03T07:35:43.482Z,55.50
2018-03-03T07:40:48.137Z,55.85
2018-03-03T07:43:16.379Z,55.78
2018-03-03T07:45:47.137Z,55.92
2018-03-03T07:48:15.717Z,56.33
2018-03-03T07:50:44.267Z,51.95
2018-03-03T07:53:12.799Z,54.30
2018-03-03T07:55:52.747Z,49.40
2018-03-03T07:58:31.868Z,48.92
2018-03-03T08:01:00.294Z,48.47
2018-03-03T08:03:29.247Z,50.53
2018-03-03T08:05:57.615Z,52.72
2018-03-03T08:08:25.918Z,51.70
2018-03-03T08:10:54.167Z,56.40
2018-03-03T08:13:22.371Z,52.95
2018-03-03T08:15:50.525Z,50.97
2018-03-03T08:18:18.681Z,54.25
2018-03-03T08:20:47.976Z,51.30
2018-03-03T08:23:17.208Z,48.70
2018-03-03T08:25:45.441Z,45.70
2018-03-03T08:28:13.622Z,46.65
2018-03-03T08:30:42.553Z,51.65
2018-03-03T08:33:10.731Z,51.20
2018-03-03T08:35:39.701Z,50.75
2018-03-03T08:38:09.137Z,50.55
2018-03-03T08:40:37.326Z,49.72
2018-03-03T08:43:06.034Z,54.40
2018-03-03T08:45:38.666Z,56.55
2018-03-03T08:50:56.603Z,58.03
2018-03-03T08:53:25.470Z,55.63
2018-03-03T08:55:56.297Z,61.47
2018-03-03T08:58:33.374Z,62.70
2018-03-03T09:01:15.910Z,64.90
2018-03-03T09:03:54.632Z,64.10
2018-03-03T09:42:18.309Z,62.72
2018-03-03T09:44:51.684Z,58.45
2018-03-03T09:47:23.420Z,58.15
2018-03-03T09:49:51.821Z,63.83
2018-03-03T09:52:20.178Z,57.25
2018-03-03T09:54:48.602Z,61.20
2018-03-03T09:57:17.989Z,62.72
2018-03-03T09:59:46.402Z,62.58
2018-03-03T10:02:17.138Z,63.90
2018-03-03T10:04:49.307Z,54.08
2018-03-03T10:07:19.215Z,59.35
2018-03-03T10:09:51.841Z,60.10
2018-03-03T10:12:21.638Z,56.78
2018-03-03T10:14:52.234Z,70.47
2018-03-03T10:17:23.177Z,73.43
2018-03-03T10:19:53.793Z,61.45
2018-03-03T10:22:22.097Z,59.30
2018-03-03T10:24:50.563Z,57.60
2018-03-03T10:27:19.740Z,57.33
2018-03-03T10:29:50.524Z,53.92
2018-03-03T10:32:21.446Z,52.45
2018-03-03T10:34:53.846Z,50.55
2018-03-03T10:40:21.403Z,50.22
2018-03-03T10:42:55.541Z,46.22
2018-03-03T10:45:25.851Z,41.97
2018-03-03T10:47:55.960Z,42.42
2018-03-03T10:50:25.516Z,44.58
2018-03-03T10:52:54.656Z,34.53
2018-03-03T10:55:24.952Z,37.92
2018-03-03T10:57:54.371Z,35.15
2018-03-03T11:00:28.268Z,34.67
2018-03-03T11:02:57.548Z,36.83
2018-03-03T11:05:28.606Z,37.20
2018-03-03T11:07:58.444Z,40.83
2018-03-03T11:10:26.801Z,37.65
2018-03-03T11:12:55.608Z,37.05
2018-03-03T11:15:27.531Z,39.58
2018-03-03T11:17:55.942Z,33.65
2018-03-03T11:20:25.013Z,34.05
2018-03-03T11:22:55.434Z,31.45
2018-03-03T11:25:37.492Z,31.87
2018-03-03T11:28:05.846Z,31.40
2018-03-03T11:30:34.715Z,33.67
2018-03-03T11:33:04.586Z,29.00
2018-03-03T11:35:32.908Z,32.88
2018-03-03T11:38:02.665Z,28.77
2018-03-03T11:40:33.136Z,29.75
2018-03-03T11:46:37.118Z,25.33
2018-03-03T11:49:06.634Z,26.05
2018-03-03T11:51:35.636Z,24.77
2018-03-03T11:54:03.916Z,25.77
2018-03-03T11:56:32.069Z,24.17
2018-03-03T11:59:01.298Z,26.62
2018-03-03T12:01:29.466Z,15.00
2018-03-03T12:03:57.642Z,15.70
2018-03-03T12:06:25.851Z,14.02
2018-03-03T12:08:54.031Z,13.30
2018-03-03T12:11:24.031Z,12.98
2018-03-03T12:13:54.206Z,14.27
2018-03-03T12:16:22.371Z,15.20
2018-03-03T12:18:51.302Z,15.23
2018-03-03T12:21:19.471Z,12.00
2018-03-03T12:23:51.231Z,15.50
2018-03-03T12:26:19.498Z,15.52
2018-03-03T12:28:47.680Z,16.23
2018-03-03T12:31:15.844Z,17.85
2018-03-03T12:33:44.171Z,17.42
2018-03-03T12:36:12.329Z,19.73
2018-03-03T12:38:40.510Z,18.00
2018-03-03T12:41:08.670Z,18.05
2018-03-03T12:43:37.934Z,20.10
2018-03-03T12:46:06.082Z,17.35
2018-03-03T12:48:34.282Z,17.45
2018-03-03T12:51:02.685Z,19.17
2018-03-03T12:53:30.884Z,18.23
2018-03-03T12:55:59.983Z,17.40
2018-03-03T12:58:28.894Z,19.70
2018-03-03T13:00:57.076Z,17.08
2018-03-03T13:03:26.002Z,17.10
2018-03-03T13:05:54.929Z,17.70
2018-03-03T13:08:23.070Z,16.27
2018-03-03T13:10:51.261Z,16.90
2018-03-03T13:13:19.434Z,17.05
2018-03-03T13:15:47.610Z,14.48
2018-03-03T13:18:15.781Z,15.82
2018-03-03T13:20:44.061Z,17.15
2018-03-03T13:23:13.253Z,16.33
2018-03-03T13:25:41.436Z,18.08
2018-03-03T13:28:09.587Z,17.25
2018-03-03T13:30:37.745Z,19.73
2018-03-03T13:33:05.916Z,18.83
2018-03-03T13:35:34.844Z,20.02
2018-03-03T13:38:03.019Z,19.75
2018-03-03T13:40:31.176Z,17.20
2018-03-03T13:42:59.739Z,19.55
2018-03-03T13:45:28.025Z,18.62
2018-03-03T13:47:57.037Z,20.30
2018-03-03T13:50:25.200Z,19.58
2018-03-03T13:52:53.367Z,18.92
2018-03-03T13:55:22.690Z,20.10
2018-03-03T13:57:51.089Z,20.50
2018-03-03T14:00:20.780Z,19.92
2018-03-03T14:02:48.994Z,20.15
2018-03-03T14:05:18.147Z,20.35
2018-03-03T14:07:46.323Z,18.65
2018-03-03T14:10:15.184Z,18.95
2018-03-03T14:12:43.364Z,21.17
2018-03-03T14:15:11.675Z,22.20
2018-03-03T14:17:39.841Z,17.48
2018-03-03T14:20:09.799Z,20.48
2018-03-03T14:22:38.005Z,18.73
2018-03-03T14:25:06.197Z,20.35
2018-03-03T14:27:34.795Z,20.67
2018-03-03T14:30:03.692Z,20.52
2018-03-03T14:32:31.833Z,18.65
2018-03-03T14:35:00.234Z,20.23
2018-03-03T14:37:28.379Z,18.75
2018-03-03T14:39:56.552Z,18.87
2018-03-03T14:42:25.160Z,20.62
2018-03-03T14:44:54.302Z,19.42
2018-03-03T14:47:24.618Z,18.80
2018-03-03T14:49:52.799Z,33.88
2018-03-03T14:55:22.521Z,14.30
2018-03-03T14:57:52.951Z,13.60
2018-03-03T15:00:25.642Z,10.32
2018-03-03T15:02:53.800Z,8.90
2018-03-03T15:05:25.496Z,8.18
2018-03-03T15:07:53.654Z,6.90
2018-03-03T15:10:22.657Z,7.07
2018-03-03T15:12:50.818Z,7.43
2018-03-03T15:15:20.863Z,8.68
2018-03-03T15:17:49.010Z,9.55
2018-03-03T15:20:17.925Z,8.85
2018-03-03T15:22:46.090Z,11.12
2018-03-03T15:25:14.376Z,10.88
2018-03-03T15:27:42.536Z,23.73
2018-03-03T15:30:12.072Z,12.30
2018-03-03T15:32:41.020Z,11.80
2018-03-03T15:35:16.593Z,10.07
2018-03-03T15:37:56.312Z,9.80
2018-03-03T15:40:25.230Z,11.10
2018-03-03T15:43:14.792Z,10.95
2018-03-03T15:45:50.235Z,9.13
2018-03-03T15:48:18.442Z,10.63
2018-03-03T15:50:46.737Z,8.43
2018-03-03T15:53:14.934Z,9.02
2018-03-03T15:55:43.099Z,9.90
2018-03-03T15:58:11.269Z,10.70
2018-03-03T16:00:39.451Z,12.80
2018-03-03T16:03:07.618Z,12.02
2018-03-03T16:05:35.802Z,10.90
2018-03-03T16:08:03.983Z,13.88
2018-03-03T16:10:32.155Z,12.40
2018-03-03T16:13:00.308Z,12.10
2018-03-03T16:15:29.485Z,12.43
2018-03-03T16:17:57.687Z,12.82
2018-03-03T16:20:25.859Z,13.25
2018-03-03T16:22:55.278Z,15.18
2018-03-03T16:25:24.426Z,17.17
2018-03-03T16:27:52.593Z,17.40
2018-03-03T16:30:20.745Z,16.95
2018-03-03T16:32:49.029Z,20.73
2018-03-03T16:35:17.327Z,19.10
2018-03-03T16:37:45.684Z,19.35
2018-03-03T16:40:15.121Z,18.27
2018-03-03T16:42:43.318Z,16.52
2018-03-03T16:45:13.501Z,13.80
2018-03-03T16:47:41.669Z,14.05
2018-03-03T16:50:09.846Z,15.20
2018-03-03T16:52:38.026Z,15.90
2018-03-03T16:55:10.513Z,13.57
2018-03-03T16:57:38.687Z,15.13
2018-03-03T17:00:18.014Z,14.60
2018-03-03T17:02:46.182Z,14.77
2018-03-03T17:05:14.436Z,13.52
2018-03-03T17:07:43.407Z,14.52
2018-03-03T17:10:11.565Z,13.43
2018-03-03T17:12:39.757Z,15.30
2018-03-03T17:15:11.240Z,15.32
2018-03-03T17:17:39.554Z,14.98
2018-03-03T17:20:07.722Z,17.60
2018-03-03T17:22:35.898Z,19.15
2018-03-03T17:25:04.164Z,17.75
2018-03-03T17:27:32.334Z,19.10
2018-03-03T17:30:00.500Z,18.92
2018-03-03T17:32:29.268Z,20.45
2018-03-03T17:34:58.303Z,16.62
2018-03-03T17:37:26.469Z,17.85
2018-03-03T17:39:54.626Z,18.27
2018-03-03T17:42:23.514Z,18.45
2018-03-03T17:44:51.789Z,33.13
2018-03-03T17:47:20.886Z,23.75
2018-03-03T17:49:49.035Z,18.95
2018-03-03T17:52:17.202Z,16.30
2018-03-03T17:54:45.528Z,17.58
2018-03-03T17:57:13.712Z,18.50
2018-03-03T17:59:41.892Z,17.37
2018-03-03T18:02:10.079Z,16.85
2018-03-03T18:04:41.500Z,18.42
2018-03-03T18:07:09.775Z,16.58
2018-03-03T18:09:37.968Z,16.52
2018-03-03T18:12:06.149Z,18.42
2018-03-03T18:14:34.516Z,16.15
2018-03-03T18:17:02.675Z,16.02
2018-03-03T18:19:33.746Z,17.55
2018-03-03T18:22:01.924Z,16.55
2018-03-03T18:24:35.950Z,18.35
2018-03-03T18:27:04.140Z,16.95
2018-03-03T18:29:32.336Z,15.63
2018-03-03T18:32:00.501Z,19.08
2018-03-03T18:34:29.220Z,18.48
2018-03-03T18:36:57.399Z,20.20
2018-03-03T18:39:25.561Z,18.50
2018-03-03T18:41:53.747Z,19.02
2018-03-03T18:44:30.425Z,18.73
2018-03-03T18:46:59.305Z,16.87
2018-03-03T18:49:35.222Z,16.73
2018-03-03T18:52:04.151Z,15.10
2018-03-03T18:54:32.430Z,19.70
2018-03-03T18:57:01.188Z,17.08
2018-03-03T18:59:30.448Z,17.15
2018-03-03T19:01:58.606Z,17.00
2018-03-03T19:04:30.030Z,17.30
2018-03-03T19:06:58.845Z,19.20
2018-03-03T19:09:27.016Z,19.95
2018-03-03T19:11:55.180Z,20.75
2018-03-03T19:14:29.959Z,21.83
2018-03-03T19:16:58.999Z,19.42
2018-03-03T19:19:27.968Z,23.80
2018-03-03T19:21:56.158Z,20.25
2018-03-03T19:24:24.544Z,19.80
2018-03-03T19:26:52.755Z,23.73
2018-03-03T19:29:20.967Z,20.73
2018-03-03T19:31:49.125Z,22.30
2018-03-03T19:34:18.355Z,22.23
2018-03-03T19:36:47.352Z,22.70
2018-03-03T19:39:15.538Z,25.52
2018-03-03T19:41:43.722Z,28.67
2018-03-03T19:44:15.173Z,28.73
2018-03-03T19:46:43.363Z,27.42
2018-03-03T19:49:14.567Z,25.30
2018-03-03T19:51:42.731Z,25.02
2018-03-03T19:54:13.989Z,15.43
2018-03-03T19:56:48.501Z,17.17
2018-03-03T19:59:16.686Z,15.30
2018-03-03T20:01:44.954Z,15.52
2018-03-03T20:04:17.081Z,13.95
2018-03-03T20:06:45.239Z,15.65
2018-03-03T20:12:12.908Z,15.38
2018-03-03T20:14:43.516Z,15.68
2018-03-03T20:17:12.923Z,12.73
2018-03-03T20:19:41.101Z,15.55
2018-03-03T20:22:10.073Z,13.35
2018-03-03T20:24:46.885Z,13.00
2018-03-03T20:27:19.292Z,11.77
2018-03-03T20:29:47.473Z,13.38
2018-03-03T20:32:15.678Z,13.50
2018-03-03T20:34:46.532Z,16.37
2018-03-03T20:37:15.519Z,12.93
2018-03-03T20:39:44.679Z,13.35
2018-03-03T20:42:13.626Z,14.73
2018-03-03T20:44:41.804Z,15.52
2018-03-03T20:47:09.977Z,17.00
2018-03-03T20:49:38.152Z,16.17
2018-03-03T20:52:06.322Z,17.98
2018-03-03T20:54:35.489Z,17.60
2018-03-03T20:57:03.646Z,12.50
2018-03-03T20:59:32.581Z,16.27
2018-03-03T21:02:00.742Z,17.73
2018-03-03T21:04:30.870Z,15.98
2018-03-03T21:07:01.093Z,15.40
2018-03-03T21:09:32.230Z,16.62
2018-03-03T21:12:11.254Z,19.37
2018-03-03T21:14:39.531Z,18.55
2018-03-03T21:17:08.475Z,18.00
2018-03-03T21:19:36.627Z,17.10
2018-03-03T21:22:04.786Z,18.65
2018-03-03T21:24:33.076Z,17.15
2018-03-03T21:27:01.609Z,19.17
2018-03-03T21:29:31.244Z,17.73
2018-03-03T21:31:59.476Z,19.58
2018-03-03T21:34:31.307Z,21.08
2018-03-03T21:37:03.062Z,21.20
2018-03-03T21:39:31.295Z,23.15
2018-03-03T21:41:59.604Z,22.33
2018-03-03T21:44:34.920Z,23.60
2018-03-03T21:47:03.123Z,22.08
2018-03-03T21:49:31.375Z,23.70
2018-03-03T21:51:59.553Z,20.45
2018-03-03T21:54:31.417Z,22.40
2018-03-03T21:56:59.649Z,22.90
2018-03-03T21:59:28.989Z,22.40
2018-03-03T22:01:57.185Z,25.55
2018-03-03T22:04:35.646Z,24.23
2018-03-03T22:07:03.846Z,23.65
2018-03-03T22:09:32.132Z,23.15
2018-03-03T22:12:00.339Z,24.92
2018-03-03T22:14:28.506Z,24.20
2018-03-03T22:16:56.669Z,24.65
2018-03-03T22:19:24.823Z,22.83
2018-03-03T22:21:54.731Z,22.40
2018-03-03T22:24:24.044Z,18.98
2018-03-03T22:26:52.219Z,21.92
2018-03-03T22:29:20.443Z,20.77
2018-03-03T22:31:48.608Z,18.50
2018-03-03T22:34:22.263Z,18.02
2018-03-03T22:36:50.546Z,17.45
2018-03-03T22:39:18.720Z,16.15
2018-03-03T22:41:47.296Z,18.48
2018-03-03T22:44:16.221Z,16.50
2018-03-03T22:46:45.181Z,15.77
2018-03-03T22:49:13.606Z,14.52
2018-03-03T22:51:41.790Z,16.35
2018-03-03T22:54:10.872Z,17.15
2018-03-03T22:56:39.049Z,16.67
2018-03-03T22:59:07.224Z,16.42
2018-03-03T23:01:35.382Z,15.48
2018-03-03T23:04:03.704Z,17.27
2018-03-03T23:06:32.611Z,16.80
2018-03-03T23:09:00.783Z,20.00
2018-03-03T23:11:29.179Z,17.77
2018-03-03T23:13:57.456Z,15.85
2018-03-03T23:16:25.686Z,16.67
2018-03-03T23:18:53.846Z,16.98
2018-03-03T23:21:22.018Z,15.57
2018-03-03T23:23:50.196Z,17.30
2018-03-03T23:26:18.589Z,16.75
2018-03-03T23:28:46.763Z,16.55
2018-03-03T23:31:15.508Z,15.40
2018-03-03T23:33:50.488Z,18.73
2018-03-03T23:36:19.512Z,16.85
2018-03-03T23:38:47.674Z,16.15
2018-03-03T23:41:15.822Z,17.48
2018-03-03T23:43:45.993Z,19.77
2018-03-03T23:46:14.306Z,18.00
2018-03-03T23:48:42.551Z,16.45
2018-03-03T23:51:10.811Z,17.40
2018-03-03T23:53:40.953Z,17.27
2018-03-03T23:56:09.124Z,17.05
2018-03-03T23:58:37.317Z,17.65
